QFA8DP YBBN-YBCS
Flight info
| Callsign | QFA8DP |
|---|---|
| Flight time | 1h 54m |
| Altitude | 30000 |
| Route | BN Q67 CS |
| Aircraft | A320/M-SDE3FGHIRWY/LB1 |
Departure
| Time | 2026-05-06 18:11 |
|---|---|
| Airport | Brisbane International Airport (YBBN) |
Arrival
| Time | 2026-05-06 20:05 |
|---|---|
| Airport | Cairns International Airport (YBCS) |
| Time | Latitude | Longitude | Altitude | Speed | Heading |
|---|---|---|---|---|---|
| 2026-05-06 17:46 | -27.38327 | 153.12280 | 22 ft | 0 kts | 289° |
| 2026-05-06 18:03 | -27.38327 | 153.12282 | 21 ft | 2 kts | 289° |
| 2026-05-06 18:03 | -27.38336 | 153.12308 | 21 ft | 4 kts | 289° |
| 2026-05-06 18:03 | -27.38345 | 153.12337 | 21 ft | 4 kts | 289° |
| 2026-05-06 18:03 | -27.38352 | 153.12358 | 21 ft | 4 kts | 266° |
| 2026-05-06 18:04 | -27.38346 | 153.12382 | 21 ft | 4 kts | 259° |
| 2026-05-06 18:04 | -27.38347 | 153.12404 | 21 ft | 4 kts | 329° |
| 2026-05-06 18:04 | -27.38370 | 153.12412 | 21 ft | 3 kts | 349° |
| 2026-05-06 18:04 | -27.38372 | 153.12412 | 21 ft | 0 kts | 349° |
| 2026-05-06 18:07 | -27.38343 | 153.12406 | 21 ft | 10 kts | 349° |
| 2026-05-06 18:07 | -27.38276 | 153.12436 | 21 ft | 13 kts | 70° |
| 2026-05-06 18:07 | -27.38310 | 153.12547 | 21 ft | 16 kts | 98° |
| 2026-05-06 18:07 | -27.38234 | 153.12627 | 21 ft | 16 kts | 27° |
| 2026-05-06 18:08 | -27.38126 | 153.12688 | 21 ft | 18 kts | 27° |
| 2026-05-06 18:08 | -27.38008 | 153.12756 | 21 ft | 20 kts | 27° |
| 2026-05-06 18:08 | -27.37879 | 153.12829 | 21 ft | 22 kts | 27° |
| 2026-05-06 18:08 | -27.37740 | 153.12910 | 21 ft | 23 kts | 28° |
| 2026-05-06 18:09 | -27.37591 | 153.12995 | 21 ft | 25 kts | 26° |
| 2026-05-06 18:09 | -27.37432 | 153.13085 | 21 ft | 26 kts | 26° |
| 2026-05-06 18:09 | -27.37306 | 153.13158 | 21 ft | 16 kts | 28° |
| 2026-05-06 18:09 | -27.37287 | 153.13266 | 21 ft | 17 kts | 118° |
| 2026-05-06 18:10 | -27.37350 | 153.13386 | 22 ft | 18 kts | 128° |
| 2026-05-06 18:10 | -27.37467 | 153.13426 | 22 ft | 19 kts | 195° |
| 2026-05-06 18:10 | -27.37606 | 153.13350 | 22 ft | 27 kts | 206° |
| 2026-05-06 18:10 | -27.37916 | 153.13180 | 21 ft | 80 kts | 206° |
| 2026-05-06 18:11 | -27.38575 | 153.12800 | 23 ft | 131 kts | 208° |
| 2026-05-06 18:11 | -27.39503 | 153.12262 | 34 ft | 170 kts | 207° |
| 2026-05-06 18:11 | -27.40513 | 153.11686 | 692 ft | 157 kts | 207° |
| 2026-05-06 18:11 | -27.41496 | 153.11122 | 1202 ft | 160 kts | 207° |
| 2026-05-06 18:12 | -27.42493 | 153.10546 | 1690 ft | 163 kts | 207° |
| 2026-05-06 18:12 | -27.43561 | 153.09928 | 1907 ft | 184 kts | 207° |
| 2026-05-06 18:12 | -27.44656 | 153.09043 | 2085 ft | 207 kts | 233° |
| 2026-05-06 18:12 | -27.45132 | 153.07470 | 2333 ft | 227 kts | 272° |
| 2026-05-06 18:13 | -27.44839 | 153.05636 | 2616 ft | 251 kts | 288° |
| 2026-05-06 18:13 | -27.43898 | 153.03930 | 3184 ft | 264 kts | 317° |
| 2026-05-06 18:13 | -27.42286 | 153.02931 | 3942 ft | 270 kts | 347° |
| 2026-05-06 18:13 | -27.40410 | 153.03001 | 4712 ft | 275 kts | 19° |
| 2026-05-06 18:14 | -27.38654 | 153.03888 | 5497 ft | 279 kts | 26° |
| 2026-05-06 18:14 | -27.36900 | 153.04864 | 6265 ft | 282 kts | 26° |
| 2026-05-06 18:14 | -27.35138 | 153.05862 | 6997 ft | 286 kts | 27° |
| 2026-05-06 18:14 | -27.33355 | 153.06874 | 7695 ft | 289 kts | 26° |
| 2026-05-06 18:15 | -27.31550 | 153.07894 | 8362 ft | 292 kts | 26° |
| 2026-05-06 18:15 | -27.29715 | 153.08923 | 9012 ft | 296 kts | 26° |
| 2026-05-06 18:15 | -27.27882 | 153.09941 | 9636 ft | 299 kts | 26° |
| 2026-05-06 18:15 | -27.26002 | 153.10981 | 10191 ft | 305 kts | 26° |
| 2026-05-06 18:16 | -27.24031 | 153.12071 | 10315 ft | 325 kts | 26° |
| 2026-05-06 18:16 | -27.21940 | 153.13232 | 10447 ft | 343 kts | 26° |
| 2026-05-06 18:16 | -27.19744 | 153.14450 | 10576 ft | 359 kts | 26° |
| 2026-05-06 18:16 | -27.17452 | 153.15721 | 10704 ft | 374 kts | 26° |
| 2026-05-06 18:17 | -27.15086 | 153.17030 | 10974 ft | 383 kts | 26° |
| 2026-05-06 18:17 | -27.12683 | 153.18362 | 11389 ft | 387 kts | 26° |
| 2026-05-06 18:17 | -27.10261 | 153.19706 | 11824 ft | 390 kts | 26° |
| 2026-05-06 18:17 | -27.07815 | 153.21060 | 12245 ft | 393 kts | 26° |
| 2026-05-06 18:18 | -27.05354 | 153.22412 | 12650 ft | 395 kts | 25° |
| 2026-05-06 18:18 | -27.02752 | 153.23460 | 13035 ft | 398 kts | 14° |
| 2026-05-06 18:18 | -27.00018 | 153.23948 | 13413 ft | 400 kts | 3° |
| 2026-05-06 18:18 | -26.97233 | 153.24016 | 13760 ft | 401 kts | 0° |
| 2026-05-06 18:19 | -26.94431 | 153.24070 | 14072 ft | 403 kts | 0° |
| 2026-05-06 18:19 | -26.91663 | 153.24130 | 14347 ft | 404 kts | 1° |
| 2026-05-06 18:19 | -26.88840 | 153.24203 | 14634 ft | 410 kts | 1° |
| 2026-05-06 18:19 | -26.85989 | 153.24275 | 14992 ft | 411 kts | 1° |
| 2026-05-06 18:20 | -26.83115 | 153.24342 | 15338 ft | 412 kts | 1° |
| 2026-05-06 18:20 | -26.80233 | 153.24399 | 15638 ft | 415 kts | 0° |
| 2026-05-06 18:20 | -26.77341 | 153.24452 | 15957 ft | 417 kts | 1° |
| 2026-05-06 18:20 | -26.74429 | 153.24512 | 16266 ft | 420 kts | 1° |
| 2026-05-06 18:21 | -26.71495 | 153.24570 | 16564 ft | 422 kts | 359° |
| 2026-05-06 18:21 | -26.68568 | 153.24293 | 16858 ft | 424 kts | 349° |
| 2026-05-06 18:21 | -26.65712 | 153.23469 | 17152 ft | 426 kts | 342° |
| 2026-05-06 18:21 | -26.62877 | 153.22482 | 17444 ft | 427 kts | 342° |
| 2026-05-06 18:22 | -26.60027 | 153.21489 | 17720 ft | 430 kts | 342° |
| 2026-05-06 18:22 | -26.57165 | 153.20495 | 17989 ft | 432 kts | 342° |
| 2026-05-06 18:22 | -26.54287 | 153.19498 | 18243 ft | 434 kts | 342° |
| 2026-05-06 18:22 | -26.52373 | 153.18834 | 18406 ft | 435 kts | 342° |
| 2026-05-06 18:23 | -26.49476 | 153.17830 | 18639 ft | 437 kts | 342° |
| 2026-05-06 18:23 | -26.46567 | 153.16824 | 18869 ft | 439 kts | 342° |
| 2026-05-06 18:23 | -26.43643 | 153.15815 | 19084 ft | 440 kts | 342° |
| 2026-05-06 18:23 | -26.40718 | 153.14805 | 19289 ft | 442 kts | 342° |
| 2026-05-06 18:24 | -26.37770 | 153.13789 | 19489 ft | 443 kts | 342° |
| 2026-05-06 18:24 | -26.34814 | 153.12773 | 19679 ft | 445 kts | 342° |
| 2026-05-06 18:24 | -26.31855 | 153.11757 | 19863 ft | 446 kts | 342° |
| 2026-05-06 18:24 | -26.28916 | 153.10610 | 20027 ft | 447 kts | 336° |
| 2026-05-06 18:25 | -26.26181 | 153.08962 | 20196 ft | 448 kts | 326° |
| 2026-05-06 18:25 | -26.23655 | 153.06925 | 20352 ft | 449 kts | 323° |
| 2026-05-06 18:25 | -26.21136 | 153.04853 | 20497 ft | 450 kts | 323° |
| 2026-05-06 18:25 | -26.18612 | 153.02784 | 20637 ft | 451 kts | 323° |
| 2026-05-06 18:26 | -26.16078 | 153.00715 | 20777 ft | 452 kts | 323° |
| 2026-05-06 18:26 | -26.13534 | 152.98643 | 20904 ft | 453 kts | 323° |
| 2026-05-06 18:26 | -26.10985 | 152.96567 | 21029 ft | 454 kts | 323° |
| 2026-05-06 18:26 | -26.08433 | 152.94496 | 21158 ft | 454 kts | 323° |
| 2026-05-06 18:27 | -26.05905 | 152.92458 | 21282 ft | 455 kts | 323° |
| 2026-05-06 18:27 | -26.03303 | 152.90371 | 21409 ft | 455 kts | 324° |
| 2026-05-06 18:27 | -26.00732 | 152.88316 | 21534 ft | 455 kts | 324° |
| 2026-05-06 18:27 | -25.98193 | 152.86287 | 21658 ft | 455 kts | 324° |
| 2026-05-06 18:28 | -25.95616 | 152.84227 | 21784 ft | 455 kts | 324° |
| 2026-05-06 18:28 | -25.93050 | 152.82171 | 21908 ft | 455 kts | 324° |
| 2026-05-06 18:28 | -25.90474 | 152.80109 | 22033 ft | 455 kts | 324° |
| 2026-05-06 18:28 | -25.87913 | 152.78056 | 22158 ft | 455 kts | 324° |
| 2026-05-06 18:29 | -25.85344 | 152.76001 | 22283 ft | 455 kts | 324° |
| 2026-05-06 18:29 | -25.82778 | 152.73953 | 22408 ft | 454 kts | 324° |
| 2026-05-06 18:29 | -25.80214 | 152.71906 | 22532 ft | 454 kts | 324° |
| 2026-05-06 18:29 | -25.77646 | 152.69851 | 22657 ft | 454 kts | 324° |
| 2026-05-06 18:30 | -25.75082 | 152.67800 | 22782 ft | 454 kts | 324° |
| 2026-05-06 18:30 | -25.72522 | 152.65752 | 22906 ft | 454 kts | 324° |
| 2026-05-06 18:30 | -25.69960 | 152.63703 | 23032 ft | 453 kts | 324° |
| 2026-05-06 18:30 | -25.67401 | 152.61662 | 23156 ft | 453 kts | 324° |
| 2026-05-06 18:31 | -25.64875 | 152.59652 | 23282 ft | 453 kts | 324° |
| 2026-05-06 18:31 | -25.62316 | 152.57619 | 23407 ft | 453 kts | 324° |
| 2026-05-06 18:31 | -25.59758 | 152.55588 | 23531 ft | 452 kts | 324° |
| 2026-05-06 18:31 | -25.57196 | 152.53560 | 23656 ft | 452 kts | 324° |
| 2026-05-06 18:32 | -25.54636 | 152.51531 | 23781 ft | 452 kts | 324° |
| 2026-05-06 18:32 | -25.52075 | 152.49496 | 23906 ft | 452 kts | 324° |
| 2026-05-06 18:32 | -25.49518 | 152.47463 | 24033 ft | 452 kts | 324° |
| 2026-05-06 18:32 | -25.46959 | 152.45432 | 24157 ft | 452 kts | 324° |
| 2026-05-06 18:33 | -25.44403 | 152.43404 | 24282 ft | 452 kts | 324° |
| 2026-05-06 18:33 | -25.41854 | 152.41382 | 24407 ft | 451 kts | 324° |
| 2026-05-06 18:33 | -25.39303 | 152.39357 | 24532 ft | 451 kts | 324° |
| 2026-05-06 18:33 | -25.36750 | 152.37330 | 24658 ft | 451 kts | 324° |
| 2026-05-06 18:34 | -25.34205 | 152.35311 | 24783 ft | 450 kts | 324° |
| 2026-05-06 18:34 | -25.31656 | 152.33294 | 24908 ft | 450 kts | 324° |
| 2026-05-06 18:34 | -25.29145 | 152.31314 | 25034 ft | 449 kts | 324° |
| 2026-05-06 18:34 | -25.26596 | 152.29304 | 25159 ft | 449 kts | 324° |
| 2026-05-06 18:35 | -25.24042 | 152.27293 | 25284 ft | 448 kts | 324° |
| 2026-05-06 18:35 | -25.21506 | 152.25295 | 25409 ft | 448 kts | 324° |
| 2026-05-06 18:35 | -25.18975 | 152.23298 | 25534 ft | 447 kts | 324° |
| 2026-05-06 18:35 | -25.16443 | 152.21298 | 25659 ft | 447 kts | 324° |
| 2026-05-06 18:36 | -25.13911 | 152.19302 | 25784 ft | 446 kts | 324° |
| 2026-05-06 18:36 | -25.11388 | 152.17318 | 25909 ft | 446 kts | 324° |
| 2026-05-06 18:36 | -25.08853 | 152.15325 | 26034 ft | 445 kts | 324° |
| 2026-05-06 18:36 | -25.06365 | 152.13367 | 26156 ft | 445 kts | 324° |
| 2026-05-06 18:37 | -25.03847 | 152.11385 | 26281 ft | 444 kts | 324° |
| 2026-05-06 18:37 | -25.01326 | 152.09400 | 26405 ft | 444 kts | 324° |
| 2026-05-06 18:37 | -24.98809 | 152.07420 | 26531 ft | 444 kts | 324° |
| 2026-05-06 18:37 | -24.96296 | 152.05445 | 26656 ft | 444 kts | 324° |
| 2026-05-06 18:38 | -24.93779 | 152.03471 | 26781 ft | 443 kts | 324° |
| 2026-05-06 18:38 | -24.91261 | 152.01507 | 26904 ft | 443 kts | 324° |
| 2026-05-06 18:38 | -24.88750 | 151.99548 | 27029 ft | 443 kts | 324° |
| 2026-05-06 18:38 | -24.86233 | 151.97586 | 27154 ft | 443 kts | 324° |
| 2026-05-06 18:39 | -24.83717 | 151.95624 | 27279 ft | 442 kts | 324° |
| 2026-05-06 18:39 | -24.81212 | 151.93669 | 27404 ft | 442 kts | 324° |
| 2026-05-06 18:39 | -24.78704 | 151.91708 | 27529 ft | 442 kts | 324° |
| 2026-05-06 18:40 | -24.73724 | 151.87815 | 27778 ft | 442 kts | 324° |
| 2026-05-06 18:40 | -24.71184 | 151.85835 | 27904 ft | 441 kts | 324° |
| 2026-05-06 18:40 | -24.68681 | 151.83890 | 28029 ft | 441 kts | 324° |
| 2026-05-06 18:40 | -24.66178 | 151.81947 | 28153 ft | 441 kts | 324° |
| 2026-05-06 18:41 | -24.63674 | 151.79999 | 28278 ft | 440 kts | 324° |
| 2026-05-06 18:41 | -24.61204 | 151.78077 | 28402 ft | 440 kts | 324° |
| 2026-05-06 18:41 | -24.58706 | 151.76134 | 28527 ft | 440 kts | 324° |
| 2026-05-06 18:41 | -24.56208 | 151.74192 | 28651 ft | 440 kts | 324° |
| 2026-05-06 18:42 | -24.53709 | 151.72250 | 28777 ft | 440 kts | 324° |
| 2026-05-06 18:42 | -24.51213 | 151.70312 | 28902 ft | 440 kts | 324° |
| 2026-05-06 18:42 | -24.48683 | 151.68353 | 29029 ft | 439 kts | 324° |
| 2026-05-06 18:42 | -24.46186 | 151.66417 | 29155 ft | 439 kts | 324° |
| 2026-05-06 18:43 | -24.43726 | 151.64513 | 29279 ft | 438 kts | 324° |
| 2026-05-06 18:43 | -24.41234 | 151.62585 | 29403 ft | 438 kts | 324° |
| 2026-05-06 18:43 | -24.38743 | 151.60656 | 29527 ft | 438 kts | 324° |
| 2026-05-06 18:43 | -24.36248 | 151.58722 | 29652 ft | 438 kts | 324° |
| 2026-05-06 18:44 | -24.33752 | 151.56791 | 29778 ft | 438 kts | 324° |
| 2026-05-06 18:44 | -24.31259 | 151.54870 | 29903 ft | 438 kts | 324° |
| 2026-05-06 18:44 | -24.28767 | 151.52954 | 30029 ft | 438 kts | 324° |
| 2026-05-06 18:44 | -24.26275 | 151.51033 | 30154 ft | 437 kts | 324° |
| 2026-05-06 18:45 | -24.23789 | 151.49111 | 30279 ft | 437 kts | 324° |
| 2026-05-06 18:45 | -24.21306 | 151.47187 | 30404 ft | 437 kts | 324° |
| 2026-05-06 18:45 | -24.18823 | 151.45263 | 30528 ft | 437 kts | 324° |
| 2026-05-06 18:45 | -24.16342 | 151.43346 | 30653 ft | 436 kts | 324° |
| 2026-05-06 18:46 | -24.13864 | 151.41436 | 30777 ft | 435 kts | 324° |
| 2026-05-06 18:46 | -24.11387 | 151.39528 | 30902 ft | 435 kts | 324° |
| 2026-05-06 18:46 | -24.08912 | 151.37623 | 31027 ft | 435 kts | 324° |
| 2026-05-06 18:46 | -24.06435 | 151.35721 | 31152 ft | 435 kts | 324° |
| 2026-05-06 18:47 | -24.03960 | 151.33821 | 31277 ft | 434 kts | 324° |
| 2026-05-06 18:47 | -24.01485 | 151.31921 | 31402 ft | 434 kts | 324° |
| 2026-05-06 18:47 | -23.99014 | 151.30025 | 31527 ft | 434 kts | 324° |
| 2026-05-06 18:47 | -23.96547 | 151.28133 | 31652 ft | 433 kts | 324° |
| 2026-05-06 18:48 | -23.94083 | 151.26242 | 31777 ft | 433 kts | 324° |
| 2026-05-06 18:48 | -23.91623 | 151.24352 | 31902 ft | 432 kts | 324° |
| 2026-05-06 18:48 | -23.89160 | 151.22463 | 32027 ft | 432 kts | 324° |
| 2026-05-06 18:48 | -23.86696 | 151.20578 | 32151 ft | 432 kts | 325° |
| 2026-05-06 18:49 | -23.84189 | 151.18777 | 32275 ft | 431 kts | 328° |
| 2026-05-06 18:49 | -23.81620 | 151.17078 | 32400 ft | 431 kts | 329° |
| 2026-05-06 18:49 | -23.79028 | 151.15449 | 32524 ft | 429 kts | 330° |
| 2026-05-06 18:49 | -23.76432 | 151.13848 | 32649 ft | 428 kts | 330° |
| 2026-05-06 18:50 | -23.73874 | 151.12272 | 32771 ft | 428 kts | 330° |
| 2026-05-06 18:50 | -23.71293 | 151.10662 | 32894 ft | 427 kts | 329° |
| 2026-05-06 18:50 | -23.68724 | 151.09030 | 33020 ft | 427 kts | 329° |
| 2026-05-06 18:50 | -23.66221 | 151.07421 | 33142 ft | 426 kts | 329° |
| 2026-05-06 18:51 | -23.63659 | 151.05768 | 33266 ft | 426 kts | 329° |
| 2026-05-06 18:51 | -23.61112 | 151.04127 | 33393 ft | 425 kts | 329° |
| 2026-05-06 18:51 | -23.58571 | 151.02493 | 33517 ft | 424 kts | 329° |
| 2026-05-06 18:51 | -23.56023 | 151.00859 | 33642 ft | 424 kts | 329° |
| 2026-05-06 18:52 | -23.53483 | 150.99228 | 33767 ft | 423 kts | 329° |
| 2026-05-06 18:52 | -23.50942 | 150.97602 | 33924 ft | 422 kts | 329° |
| 2026-05-06 18:52 | -23.48409 | 150.95985 | 34000 ft | 423 kts | 329° |
| 2026-05-06 18:53 | -23.43303 | 150.92736 | 34010 ft | 428 kts | 329° |
| 2026-05-06 18:53 | -23.38134 | 150.89438 | 34009 ft | 432 kts | 329° |
| 2026-05-06 18:54 | -23.32919 | 150.86113 | 34010 ft | 436 kts | 329° |
| 2026-05-06 18:54 | -23.27665 | 150.82767 | 34010 ft | 440 kts | 329° |
| 2026-05-06 18:55 | -23.22477 | 150.79462 | 34006 ft | 424 kts | 329° |
| 2026-05-06 18:55 | -23.17421 | 150.76246 | 34008 ft | 423 kts | 329° |
| 2026-05-06 18:56 | -23.12308 | 150.72997 | 34008 ft | 429 kts | 329° |
| 2026-05-06 18:56 | -23.07124 | 150.69719 | 34010 ft | 433 kts | 329° |
| 2026-05-06 18:57 | -23.01895 | 150.66403 | 34009 ft | 437 kts | 329° |
| 2026-05-06 18:57 | -22.96622 | 150.63055 | 34010 ft | 441 kts | 329° |
| 2026-05-06 18:58 | -22.91296 | 150.59681 | 34009 ft | 445 kts | 329° |
| 2026-05-06 18:58 | -22.85937 | 150.56281 | 34010 ft | 448 kts | 329° |
| 2026-05-06 18:59 | -22.80538 | 150.52866 | 34009 ft | 450 kts | 329° |
| 2026-05-06 18:59 | -22.75141 | 150.49459 | 34008 ft | 453 kts | 329° |
| 2026-05-06 19:00 | -22.69688 | 150.46028 | 34009 ft | 455 kts | 329° |
| 2026-05-06 19:00 | -22.64204 | 150.42575 | 34009 ft | 457 kts | 329° |
| 2026-05-06 19:01 | -22.58698 | 150.39110 | 34010 ft | 459 kts | 329° |
| 2026-05-06 19:01 | -22.53140 | 150.35607 | 34009 ft | 460 kts | 329° |
| 2026-05-06 19:02 | -22.47632 | 150.32140 | 34010 ft | 462 kts | 329° |
| 2026-05-06 19:02 | -22.42066 | 150.28646 | 34009 ft | 463 kts | 329° |
| 2026-05-06 19:03 | -22.36498 | 150.25152 | 34010 ft | 464 kts | 329° |
| 2026-05-06 19:03 | -22.30910 | 150.21650 | 34009 ft | 465 kts | 329° |
| 2026-05-06 19:04 | -22.25311 | 150.18141 | 34009 ft | 466 kts | 329° |
| 2026-05-06 19:04 | -22.19739 | 150.14540 | 34010 ft | 467 kts | 328° |
| 2026-05-06 19:05 | -22.14189 | 150.10869 | 34009 ft | 468 kts | 328° |
| 2026-05-06 19:05 | -22.08626 | 150.07198 | 34009 ft | 469 kts | 328° |
| 2026-05-06 19:06 | -22.03040 | 150.03548 | 34009 ft | 470 kts | 328° |
| 2026-05-06 19:06 | -21.97436 | 149.99907 | 34010 ft | 470 kts | 328° |
| 2026-05-06 19:07 | -21.92773 | 149.96885 | 34009 ft | 471 kts | 328° |
| 2026-05-06 19:07 | -21.87161 | 149.93243 | 34009 ft | 471 kts | 328° |
| 2026-05-06 19:08 | -21.81549 | 149.89589 | 34008 ft | 472 kts | 328° |
| 2026-05-06 19:08 | -21.75921 | 149.85931 | 34009 ft | 472 kts | 328° |
| 2026-05-06 19:09 | -21.70289 | 149.82279 | 34009 ft | 473 kts | 328° |
| 2026-05-06 19:09 | -21.64655 | 149.78629 | 34009 ft | 473 kts | 328° |
| 2026-05-06 19:10 | -21.59020 | 149.74983 | 34010 ft | 473 kts | 328° |
| 2026-05-06 19:10 | -21.53387 | 149.71338 | 34008 ft | 473 kts | 328° |
| 2026-05-06 19:11 | -21.47754 | 149.67694 | 34009 ft | 473 kts | 328° |
| 2026-05-06 19:11 | -21.42108 | 149.64049 | 34009 ft | 473 kts | 328° |
| 2026-05-06 19:12 | -21.36458 | 149.60407 | 34010 ft | 474 kts | 328° |
| 2026-05-06 19:12 | -21.30794 | 149.56761 | 34008 ft | 475 kts | 328° |
| 2026-05-06 19:12 | -21.27972 | 149.54945 | 34134 ft | 471 kts | 329° |
| 2026-05-06 19:13 | -21.25150 | 149.53128 | 33990 ft | 475 kts | 328° |
| 2026-05-06 19:13 | -21.19493 | 149.49484 | 34007 ft | 474 kts | 328° |
| 2026-05-06 19:14 | -21.13872 | 149.45866 | 34010 ft | 475 kts | 328° |
| 2026-05-06 19:14 | -21.08200 | 149.42226 | 34009 ft | 475 kts | 329° |
| 2026-05-06 19:15 | -21.02528 | 149.38591 | 34009 ft | 475 kts | 328° |
| 2026-05-06 19:15 | -20.96861 | 149.34954 | 34009 ft | 475 kts | 329° |
| 2026-05-06 19:16 | -20.91189 | 149.31320 | 34009 ft | 475 kts | 329° |
| 2026-05-06 19:16 | -20.85500 | 149.27686 | 34010 ft | 476 kts | 329° |
| 2026-05-06 19:17 | -20.79813 | 149.24057 | 34009 ft | 476 kts | 329° |
| 2026-05-06 19:17 | -20.74178 | 149.20457 | 34008 ft | 476 kts | 329° |
| 2026-05-06 19:18 | -20.68485 | 149.16815 | 34010 ft | 476 kts | 329° |
| 2026-05-06 19:18 | -20.62793 | 149.13186 | 34009 ft | 476 kts | 329° |
| 2026-05-06 19:19 | -20.57099 | 149.09566 | 34009 ft | 476 kts | 329° |
| 2026-05-06 19:19 | -20.51437 | 149.05970 | 34007 ft | 476 kts | 329° |
| 2026-05-06 19:20 | -20.45751 | 149.02346 | 34009 ft | 476 kts | 329° |
| 2026-05-06 19:20 | -20.40063 | 148.98719 | 34009 ft | 476 kts | 329° |
| 2026-05-06 19:21 | -20.34438 | 148.95002 | 34008 ft | 475 kts | 322° |
| 2026-05-06 19:21 | -20.29252 | 148.90615 | 34009 ft | 475 kts | 321° |
| 2026-05-06 19:22 | -20.24109 | 148.86262 | 34009 ft | 476 kts | 321° |
| 2026-05-06 19:22 | -20.18923 | 148.81888 | 34009 ft | 476 kts | 321° |
| 2026-05-06 19:23 | -20.13746 | 148.77518 | 33901 ft | 472 kts | 326° |
| 2026-05-06 19:23 | -20.08635 | 148.73203 | 33745 ft | 464 kts | 326° |
| 2026-05-06 19:24 | -20.03625 | 148.68972 | 33752 ft | 458 kts | 326° |
| 2026-05-06 19:24 | -19.98625 | 148.64764 | 33759 ft | 457 kts | 326° |
| 2026-05-06 19:25 | -19.93633 | 148.60570 | 33759 ft | 457 kts | 326° |
| 2026-05-06 19:25 | -19.88637 | 148.56368 | 33752 ft | 457 kts | 326° |
| 2026-05-06 19:26 | -19.83675 | 148.52194 | 33763 ft | 458 kts | 326° |
| 2026-05-06 19:26 | -19.78676 | 148.47996 | 33761 ft | 458 kts | 326° |
| 2026-05-06 19:27 | -19.73676 | 148.43803 | 33770 ft | 458 kts | 326° |
| 2026-05-06 19:27 | -19.68668 | 148.39613 | 33763 ft | 458 kts | 326° |
| 2026-05-06 19:28 | -19.63655 | 148.35412 | 33780 ft | 459 kts | 323° |
| 2026-05-06 19:28 | -19.61157 | 148.33316 | 33963 ft | 456 kts | 321° |
| 2026-05-06 19:28 | -19.58667 | 148.31229 | 34012 ft | 457 kts | 321° |
| 2026-05-06 19:29 | -19.53655 | 148.27036 | 34009 ft | 459 kts | 321° |
| 2026-05-06 19:29 | -19.48621 | 148.22826 | 34009 ft | 461 kts | 321° |
| 2026-05-06 19:30 | -19.43602 | 148.18631 | 34009 ft | 463 kts | 321° |
| 2026-05-06 19:30 | -19.38524 | 148.14402 | 34009 ft | 465 kts | 321° |
| 2026-05-06 19:31 | -19.33429 | 148.10169 | 34009 ft | 466 kts | 321° |
| 2026-05-06 19:31 | -19.25764 | 148.03783 | 34009 ft | 468 kts | 321° |
| 2026-05-06 19:32 | -19.20636 | 147.99508 | 34009 ft | 469 kts | 321° |
| 2026-05-06 19:32 | -19.15501 | 147.95235 | 34009 ft | 470 kts | 321° |
| 2026-05-06 19:33 | -19.10342 | 147.90953 | 34009 ft | 471 kts | 321° |
| 2026-05-06 19:33 | -19.05177 | 147.86673 | 34009 ft | 472 kts | 321° |
| 2026-05-06 19:34 | -19.00007 | 147.82385 | 34009 ft | 473 kts | 321° |
| 2026-05-06 19:34 | -18.94830 | 147.78097 | 34009 ft | 473 kts | 321° |
| 2026-05-06 19:35 | -18.89646 | 147.73806 | 34009 ft | 474 kts | 321° |
| 2026-05-06 19:35 | -18.84455 | 147.69509 | 34009 ft | 474 kts | 321° |
| 2026-05-06 19:36 | -18.79291 | 147.65241 | 34009 ft | 475 kts | 321° |
| 2026-05-06 19:36 | -18.74062 | 147.60918 | 34009 ft | 475 kts | 321° |
| 2026-05-06 19:37 | -18.68855 | 147.56623 | 34009 ft | 475 kts | 321° |
| 2026-05-06 19:37 | -18.64523 | 147.53051 | 34009 ft | 475 kts | 321° |
| 2026-05-06 19:38 | -18.58433 | 147.48033 | 34009 ft | 476 kts | 321° |
| 2026-05-06 19:38 | -18.53209 | 147.43737 | 34009 ft | 476 kts | 322° |
| 2026-05-06 19:39 | -18.48021 | 147.39472 | 34009 ft | 476 kts | 321° |
| 2026-05-06 19:39 | -18.42802 | 147.35178 | 34009 ft | 476 kts | 322° |
| 2026-05-06 19:40 | -18.37571 | 147.30886 | 34009 ft | 476 kts | 322° |
| 2026-05-06 19:40 | -18.32344 | 147.26589 | 34009 ft | 477 kts | 321° |
| 2026-05-06 19:41 | -18.27116 | 147.22301 | 34009 ft | 477 kts | 322° |
| 2026-05-06 19:41 | -18.21875 | 147.18017 | 34009 ft | 477 kts | 322° |
| 2026-05-06 19:42 | -18.16634 | 147.13734 | 34009 ft | 477 kts | 322° |
| 2026-05-06 19:42 | -18.11424 | 147.09473 | 34009 ft | 477 kts | 322° |
| 2026-05-06 19:43 | -18.06189 | 147.05190 | 34009 ft | 477 kts | 322° |
| 2026-05-06 19:43 | -18.00951 | 147.00912 | 34009 ft | 477 kts | 322° |
| 2026-05-06 19:44 | -17.95707 | 146.96637 | 34009 ft | 477 kts | 322° |
| 2026-05-06 19:44 | -17.90462 | 146.92358 | 34009 ft | 477 kts | 322° |
| 2026-05-06 19:45 | -17.85219 | 146.88077 | 34009 ft | 477 kts | 322° |
| 2026-05-06 19:45 | -17.79969 | 146.83802 | 34009 ft | 477 kts | 322° |
| 2026-05-06 19:46 | -17.74719 | 146.79542 | 34009 ft | 477 kts | 322° |
| 2026-05-06 19:46 | -17.69444 | 146.75260 | 33771 ft | 483 kts | 322° |
| 2026-05-06 19:47 | -17.66777 | 146.73096 | 33525 ft | 488 kts | 322° |
| 2026-05-06 19:47 | -17.64080 | 146.70908 | 33278 ft | 492 kts | 322° |
| 2026-05-06 19:47 | -17.61365 | 146.68699 | 33030 ft | 496 kts | 322° |
| 2026-05-06 19:47 | -17.58631 | 146.66475 | 32780 ft | 499 kts | 322° |
| 2026-05-06 19:48 | -17.55873 | 146.64236 | 32534 ft | 502 kts | 322° |
| 2026-05-06 19:48 | -17.53095 | 146.61988 | 32284 ft | 505 kts | 322° |
| 2026-05-06 19:48 | -17.50310 | 146.59736 | 32034 ft | 508 kts | 322° |
| 2026-05-06 19:48 | -17.47509 | 146.57472 | 31785 ft | 509 kts | 322° |
| 2026-05-06 19:49 | -17.44698 | 146.55202 | 31534 ft | 511 kts | 322° |
| 2026-05-06 19:49 | -17.41881 | 146.52928 | 31284 ft | 512 kts | 322° |
| 2026-05-06 19:49 | -17.39092 | 146.50676 | 31037 ft | 513 kts | 322° |
| 2026-05-06 19:49 | -17.36261 | 146.48391 | 30792 ft | 514 kts | 322° |
| 2026-05-06 19:50 | -17.33424 | 146.46101 | 30543 ft | 514 kts | 322° |
| 2026-05-06 19:50 | -17.30592 | 146.43815 | 30294 ft | 515 kts | 322° |
| 2026-05-06 19:50 | -17.27770 | 146.41535 | 29441 ft | 512 kts | 322° |
| 2026-05-06 19:50 | -17.24937 | 146.39244 | 28109 ft | 515 kts | 322° |
| 2026-05-06 19:51 | -17.22162 | 146.36888 | 26963 ft | 514 kts | 316° |
| 2026-05-06 19:51 | -17.19643 | 146.34219 | 25814 ft | 516 kts | 314° |
| 2026-05-06 19:51 | -17.17137 | 146.31526 | 24659 ft | 517 kts | 314° |
| 2026-05-06 19:51 | -17.14643 | 146.28837 | 23518 ft | 512 kts | 314° |
| 2026-05-06 19:52 | -17.12179 | 146.26175 | 22367 ft | 506 kts | 314° |
| 2026-05-06 19:52 | -17.09748 | 146.23554 | 21349 ft | 498 kts | 314° |
| 2026-05-06 19:52 | -17.07348 | 146.20973 | 20380 ft | 490 kts | 314° |
| 2026-05-06 19:52 | -17.04997 | 146.18445 | 19447 ft | 482 kts | 314° |
| 2026-05-06 19:53 | -17.02678 | 146.15951 | 18529 ft | 474 kts | 314° |
| 2026-05-06 19:53 | -17.01163 | 146.14323 | 17939 ft | 469 kts | 314° |
| 2026-05-06 19:53 | -16.98901 | 146.11894 | 17043 ft | 462 kts | 314° |
| 2026-05-06 19:53 | -16.96679 | 146.09509 | 16149 ft | 455 kts | 314° |
| 2026-05-06 19:54 | -16.94492 | 146.07161 | 15279 ft | 448 kts | 314° |
| 2026-05-06 19:54 | -16.92332 | 146.04842 | 14448 ft | 442 kts | 314° |
| 2026-05-06 19:54 | -16.90200 | 146.02553 | 13655 ft | 436 kts | 314° |
| 2026-05-06 19:54 | -16.88098 | 146.00300 | 12956 ft | 430 kts | 314° |
| 2026-05-06 19:55 | -16.86056 | 145.98110 | 12786 ft | 412 kts | 314° |
| 2026-05-06 19:55 | -16.84107 | 145.96019 | 12657 ft | 392 kts | 314° |
| 2026-05-06 19:55 | -16.82248 | 145.94026 | 12531 ft | 374 kts | 314° |
| 2026-05-06 19:55 | -16.80468 | 145.92120 | 12405 ft | 358 kts | 314° |
| 2026-05-06 19:56 | -16.78764 | 145.90296 | 12279 ft | 344 kts | 314° |
| 2026-05-06 19:56 | -16.77121 | 145.88538 | 12154 ft | 332 kts | 314° |
| 2026-05-06 19:56 | -16.75537 | 145.86843 | 12023 ft | 320 kts | 314° |
| 2026-05-06 19:56 | -16.74001 | 145.85200 | 11760 ft | 315 kts | 314° |
| 2026-05-06 19:57 | -16.72475 | 145.83568 | 11418 ft | 312 kts | 314° |
| 2026-05-06 19:57 | -16.70983 | 145.81973 | 11068 ft | 310 kts | 314° |
| 2026-05-06 19:57 | -16.69480 | 145.80369 | 10713 ft | 308 kts | 314° |
| 2026-05-06 19:57 | -16.67987 | 145.78778 | 10360 ft | 306 kts | 314° |
| 2026-05-06 19:58 | -16.66498 | 145.77191 | 10007 ft | 304 kts | 314° |
| 2026-05-06 19:58 | -16.65031 | 145.75621 | 9743 ft | 299 kts | 313° |
| 2026-05-06 19:58 | -16.63592 | 145.74070 | 9445 ft | 296 kts | 313° |
| 2026-05-06 19:58 | -16.62163 | 145.72530 | 8938 ft | 296 kts | 313° |
| 2026-05-06 19:59 | -16.60743 | 145.70994 | 8313 ft | 293 kts | 312° |
| 2026-05-06 19:59 | -16.59671 | 145.69230 | 7687 ft | 288 kts | 287° |
| 2026-05-06 19:59 | -16.59270 | 145.67206 | 7062 ft | 284 kts | 276° |
| 2026-05-06 19:59 | -16.59430 | 145.65193 | 6433 ft | 280 kts | 247° |
| 2026-05-06 20:00 | -16.60595 | 145.63623 | 5804 ft | 276 kts | 213° |
| 2026-05-06 20:00 | -16.62385 | 145.63023 | 5215 ft | 272 kts | 177° |
| 2026-05-06 20:00 | -16.64093 | 145.63622 | 4968 ft | 256 kts | 144° |
| 2026-05-06 20:00 | -16.65451 | 145.64813 | 4487 ft | 255 kts | 144° |
| 2026-05-06 20:01 | -16.67034 | 145.65626 | 4131 ft | 254 kts | 159° |
| 2026-05-06 20:01 | -16.68684 | 145.66294 | 3794 ft | 254 kts | 158° |
| 2026-05-06 20:01 | -16.70313 | 145.67007 | 3456 ft | 254 kts | 157° |
| 2026-05-06 20:01 | -16.71938 | 145.67742 | 3118 ft | 254 kts | 157° |
| 2026-05-06 20:02 | -16.73542 | 145.68468 | 2779 ft | 246 kts | 157° |
| 2026-05-06 20:02 | -16.75045 | 145.69147 | 2467 ft | 224 kts | 157° |
| 2026-05-06 20:02 | -16.76426 | 145.69770 | 2178 ft | 210 kts | 157° |
| 2026-05-06 20:02 | -16.77741 | 145.70363 | 1909 ft | 202 kts | 157° |
| 2026-05-06 20:03 | -16.78967 | 145.70917 | 1673 ft | 184 kts | 157° |
| 2026-05-06 20:03 | -16.80081 | 145.71420 | 1433 ft | 163 kts | 157° |
| 2026-05-06 20:03 | -16.81074 | 145.71868 | 1212 ft | 150 kts | 158° |
| 2026-05-06 20:03 | -16.82020 | 145.72296 | 1016 ft | 146 kts | 158° |
| 2026-05-06 20:04 | -16.82945 | 145.72713 | 825 ft | 144 kts | 158° |
| 2026-05-06 20:04 | -16.83853 | 145.73123 | 636 ft | 143 kts | 158° |
| 2026-05-06 20:04 | -16.84767 | 145.73536 | 447 ft | 143 kts | 158° |
| 2026-05-06 20:04 | -16.85676 | 145.73948 | 248 ft | 142 kts | 157° |
| 2026-05-06 20:05 | -16.86584 | 145.74357 | 62 ft | 142 kts | 158° |
| 2026-05-06 20:05 | -16.87428 | 145.74732 | 13 ft | 108 kts | 156° |
| 2026-05-06 20:05 | -16.87897 | 145.74947 | 14 ft | 59 kts | 156° |
| 2026-05-06 20:05 | -16.88231 | 145.75104 | 14 ft | 42 kts | 155° |
| 2026-05-06 20:06 | -16.88357 | 145.75200 | 14 ft | 18 kts | 101° |
| 2026-05-06 20:06 | -16.88296 | 145.75307 | 12 ft | 18 kts | 4° |
| 2026-05-06 20:06 | -16.88169 | 145.75262 | 12 ft | 21 kts | 333° |
| 2026-05-06 20:06 | -16.88029 | 145.75199 | 10 ft | 23 kts | 336° |
| 2026-05-06 20:07 | -16.87919 | 145.75170 | 11 ft | 14 kts | 25° |
| 2026-05-06 20:07 | -16.87836 | 145.75212 | 11 ft | 15 kts | 345° |
| 2026-05-06 20:07 | -16.87750 | 145.75204 | 12 ft | 13 kts | 47° |
| 2026-05-06 20:07 | -16.87726 | 145.75261 | 12 ft | 4 kts | 65° |
| 2026-05-06 20:08 | -16.87724 | 145.75267 | 12 ft | 0 kts | 65° |